createdAt,value
2023-01-11T00:00:15.928Z,94017.19
2023-01-11T00:02:17.645Z,94020.31
2023-01-11T00:04:19.535Z,94014.72
2023-01-11T00:06:21.211Z,94009.81
2023-01-11T00:08:24.522Z,94014.03
2023-01-11T00:10:26.280Z,94015.00
2023-01-11T00:12:28.629Z,94014.88
2023-01-11T00:14:30.131Z,94014.72
2023-01-11T00:16:31.789Z,94013.09
2023-01-11T00:18:33.307Z,94014.03
2023-01-11T00:20:34.923Z,94018.13
2023-01-11T00:22:36.773Z,94016.75
2023-01-11T00:24:38.268Z,94022.50
2023-01-11T00:26:39.884Z,94017.31
2023-01-11T00:28:41.987Z,94020.59
2023-01-11T00:30:43.449Z,94028.50
2023-01-11T00:32:45.010Z,94034.53
2023-01-11T00:34:46.607Z,94031.50
2023-01-11T00:36:48.124Z,94038.47
2023-01-11T00:38:54.383Z,94033.69
2023-01-11T00:40:55.879Z,94035.31
2023-01-11T00:43:16.158Z,94037.22
2023-01-11T00:45:36.066Z,94041.81
2023-01-11T00:47:56.156Z,94042.06
2023-01-11T00:49:57.848Z,94040.88
2023-01-11T00:51:59.587Z,94030.94
2023-01-11T00:54:01.060Z,94033.41
2023-01-11T00:56:02.532Z,94046.78
2023-01-11T00:58:04.195Z,94047.06
2023-01-11T01:00:06.438Z,94042.28
2023-01-11T01:02:08.974Z,94049.53
2023-01-11T01:04:10.683Z,94040.78
2023-01-11T01:06:12.373Z,94039.16
2023-01-11T01:08:13.918Z,94040.94
2023-01-11T01:10:15.909Z,94043.25
2023-01-11T01:12:36.253Z,94041.75
2023-01-11T01:14:37.780Z,94034.22
2023-01-11T01:16:39.247Z,94042.69
2023-01-11T01:18:40.859Z,94045.97
2023-01-11T01:20:42.452Z,94042.69
2023-01-11T01:22:43.949Z,94039.16
2023-01-11T01:24:45.484Z,94049.78
2023-01-11T01:26:47.131Z,94057.72
2023-01-11T01:28:48.874Z,94061.25
2023-01-11T01:30:51.584Z,94056.19
2023-01-11T01:32:54.437Z,94058.25
2023-01-11T01:34:55.950Z,94053.06
2023-01-11T01:36:57.541Z,94055.81
2023-01-11T01:38:59.966Z,94059.63
2023-01-11T01:41:01.502Z,94060.28
2023-01-11T01:43:03.129Z,94060.16
2023-01-11T01:45:06.909Z,94060.84
2023-01-11T01:47:08.538Z,94068.09
2023-01-11T01:49:11.893Z,94066.03
2023-01-11T01:51:15.088Z,94061.94
2023-01-11T01:53:26.595Z,94073.25
2023-01-11T01:55:29.236Z,94067.78
2023-01-11T01:57:31.455Z,94070.78
2023-01-11T01:59:32.996Z,94065.34
2023-01-11T02:01:50.076Z,94067.66
2023-01-11T02:03:51.917Z,94071.06
2023-01-11T02:05:53.416Z,94066.56
2023-01-11T02:07:56.383Z,94069.84
2023-01-11T02:10:08.092Z,94071.06
2023-01-11T02:12:09.679Z,94075.44
2023-01-11T02:14:12.745Z,94080.50
2023-01-11T02:16:14.266Z,94087.88
2023-01-11T02:18:15.793Z,94091.25
2023-01-11T02:20:17.434Z,94092.06
2023-01-11T02:22:37.220Z,94095.75
2023-01-11T02:24:38.680Z,94106.69
2023-01-11T02:26:46.002Z,94112.41
2023-01-11T02:29:00.700Z,94119.66
2023-01-11T02:31:14.701Z,94118.16
2023-01-11T02:33:18.840Z,94122.66
2023-01-11T02:35:26.576Z,94124.56
2023-01-11T02:37:46.377Z,94133.44
2023-01-11T02:39:47.927Z,94131.09
2023-01-11T02:42:23.376Z,94135.19
2023-01-11T02:44:47.790Z,94133.25
2023-01-11T02:46:56.674Z,94142.25
2023-01-11T02:49:16.981Z,94136.78
2023-01-11T02:51:27.191Z,94142.78
2023-01-11T02:53:31.364Z,94144.69
2023-01-11T02:55:34.945Z,94144.78
2023-01-11T02:57:39.291Z,94151.22
2023-01-11T02:59:41.895Z,94143.28
2023-01-11T03:01:44.648Z,94148.59
2023-01-11T03:03:46.241Z,94145.72
2023-01-11T03:05:50.521Z,94151.06
2023-01-11T03:08:00.142Z,94149.28
2023-01-11T03:10:17.972Z,94159.25
2023-01-11T03:12:51.981Z,94154.75
2023-01-11T03:14:59.710Z,94159.53
2023-01-11T03:17:06.170Z,94151.91
2023-01-11T03:19:25.364Z,94144.94
2023-01-11T03:21:29.984Z,94151.50
2023-01-11T03:23:43.236Z,94152.03
2023-01-11T03:26:04.398Z,94153.44
2023-01-11T03:28:09.411Z,94150.16
2023-01-11T03:30:13.658Z,94151.28
2023-01-11T03:32:26.276Z,94142.97
2023-01-11T03:34:37.174Z,94143.50
2023-01-11T03:36:40.557Z,94142.97
2023-01-11T03:38:49.601Z,94148.81
2023-01-11T03:40:53.273Z,94151.00
2023-01-11T03:43:12.518Z,94153.47
2023-01-11T03:45:14.090Z,94150.59
2023-01-11T03:47:15.965Z,94151.41
2023-01-11T03:49:21.838Z,94150.19
2023-01-11T03:51:45.055Z,94152.91
2023-01-11T03:53:47.081Z,94157.84
2023-01-11T03:55:50.060Z,94158.25
2023-01-11T03:57:52.649Z,94160.44
2023-01-11T03:59:54.149Z,94151.56
2023-01-11T04:01:55.785Z,94161.94
2023-01-11T04:03:57.475Z,94158.25
2023-01-11T04:06:00.059Z,94169.03
2023-01-11T04:08:01.560Z,94168.34
2023-01-11T04:10:03.465Z,94173.00
2023-01-11T04:12:05.147Z,94174.38
2023-01-11T04:14:06.789Z,94168.06
2023-01-11T04:16:08.390Z,94173.38
2023-01-11T04:18:09.976Z,94178.56
2023-01-11T04:20:12.217Z,94171.50
2023-01-11T04:22:13.816Z,94180.19
2023-01-11T04:24:15.451Z,94186.19
2023-01-11T04:26:17.659Z,94181.69
2023-01-11T04:28:19.167Z,94182.91
2023-01-11T04:30:21.052Z,94184.97
2023-01-11T04:32:22.729Z,94196.03
2023-01-11T04:34:24.250Z,94193.16
2023-01-11T04:36:26.702Z,94196.72
2023-01-11T04:38:28.246Z,94204.34
2023-01-11T04:40:29.826Z,94205.59
2023-01-11T04:42:31.337Z,94203.69
2023-01-11T04:44:32.842Z,94201.50
2023-01-11T04:46:34.674Z,94209.13
2023-01-11T04:48:36.235Z,94211.34
2023-01-11T04:50:37.767Z,94212.03
2023-01-11T04:52:41.793Z,94208.06
2023-01-11T04:54:43.475Z,94207.97
2023-01-11T04:56:45.011Z,94212.03
2023-01-11T04:58:46.892Z,94224.59
2023-01-11T05:00:48.388Z,94221.03
2023-01-11T05:02:49.984Z,94223.38
2023-01-11T05:04:51.470Z,94220.22
2023-01-11T05:06:53.064Z,94223.91
2023-01-11T05:08:54.660Z,94225.53
2023-01-11T05:10:57.135Z,94234.41
2023-01-11T05:12:58.659Z,94230.84
2023-01-11T05:15:00.237Z,94240.00
2023-01-11T05:17:01.762Z,94237.81
2023-01-11T05:19:03.912Z,94240.41
2023-01-11T05:21:06.512Z,94247.25
2023-01-11T05:23:08.059Z,94253.38
2023-01-11T05:25:09.685Z,94242.31
2023-01-11T05:27:11.239Z,94249.53
2023-01-11T05:29:14.238Z,94251.16
2023-01-11T05:31:16.182Z,94248.91
2023-01-11T05:33:17.723Z,94250.53
2023-01-11T05:35:19.616Z,94249.75
2023-01-11T05:37:21.194Z,94245.28
2023-01-11T05:39:23.958Z,94249.19
2023-01-11T05:41:26.327Z,94246.19
2023-01-11T05:43:28.633Z,94253.56
2023-01-11T05:45:31.991Z,94251.38
2023-01-11T05:47:33.606Z,94261.56
2023-01-11T05:49:35.149Z,94258.44
2023-01-11T05:51:38.187Z,94262.53
2023-01-11T05:53:39.789Z,94262.16
2023-01-11T05:55:51.423Z,94265.72
2023-01-11T05:57:52.926Z,94269.72
2023-01-11T05:59:54.438Z,94273.81
2023-01-11T06:01:56.101Z,94275.19
2023-01-11T06:03:57.630Z,94264.00
2023-01-11T06:05:59.758Z,94272.47
2023-01-11T06:08:01.628Z,94269.06
2023-01-11T06:10:03.386Z,94274.91
2023-01-11T06:12:04.967Z,94281.75
2023-01-11T06:14:06.472Z,94286.66
2023-01-11T06:16:10.020Z,94286.97
2023-01-11T06:18:11.812Z,94289.97
2023-01-11T06:20:13.390Z,94297.63
2023-01-11T06:22:14.914Z,94291.72
2023-01-11T06:24:16.433Z,94306.22
2023-01-11T06:26:19.531Z,94306.91
2023-01-11T06:28:21.154Z,94308.97
2023-01-11T06:30:25.821Z,94314.03
2023-01-11T06:32:29.047Z,94320.44
2023-01-11T06:34:30.660Z,94315.53
2023-01-11T06:36:32.200Z,94314.03
2023-01-11T06:38:33.904Z,94315.97
2023-01-11T06:40:35.765Z,94318.19
2023-01-11T06:42:37.356Z,94329.22
2023-01-11T06:44:38.916Z,94319.28
2023-01-11T06:46:40.599Z,94319.72
2023-01-11T06:48:42.579Z,94322.59
2023-01-11T06:50:47.248Z,94323.84
2023-01-11T06:52:58.956Z,94325.59
2023-01-11T06:55:00.519Z,94327.88
2023-01-11T06:57:02.086Z,94333.66
2023-01-11T06:59:04.556Z,94334.19
2023-01-11T07:01:06.319Z,94334.34
2023-01-11T07:03:08.050Z,94338.84
2023-01-11T07:05:10.155Z,94340.34
2023-01-11T07:07:11.679Z,94346.81
2023-01-11T07:09:13.111Z,94348.31
2023-01-11T07:11:14.772Z,94346.28
2023-01-11T07:13:17.401Z,94361.72
2023-01-11T07:15:19.247Z,94358.44
2023-01-11T07:17:21.006Z,94355.69
2023-01-11T07:19:22.566Z,94365.78
2023-01-11T07:21:24.058Z,94368.25
2023-01-11T07:23:25.573Z,94368.75
2023-01-11T07:25:27.872Z,94374.81
2023-01-11T07:27:29.485Z,94379.59
2023-01-11T07:29:31.041Z,94371.69
2023-01-11T07:31:32.722Z,94376.78
2023-01-11T07:33:35.321Z,94381.69
2023-01-11T07:35:36.966Z,94382.00
2023-01-11T07:37:38.536Z,94382.44
2023-01-11T07:39:43.932Z,94383.19
2023-01-11T07:42:04.091Z,94387.47
2023-01-11T07:44:05.675Z,94386.97
2023-01-11T07:46:07.385Z,94384.44
2023-01-11T07:48:10.656Z,94387.75
2023-01-11T07:50:12.193Z,94385.31
2023-01-11T07:52:13.908Z,94400.50
2023-01-11T07:54:15.353Z,94401.34
2023-01-11T07:56:17.097Z,94405.03
2023-01-11T07:58:18.665Z,94403.66
2023-01-11T08:00:20.421Z,94410.19
2023-01-11T08:02:21.953Z,94413.34
2023-01-11T08:04:23.535Z,94414.94
2023-01-11T08:06:25.258Z,94421.81
2023-01-11T08:08:26.790Z,94420.31
2023-01-11T08:10:28.317Z,94425.78
2023-01-11T08:12:51.366Z,94433.13
2023-01-11T08:14:53.117Z,94441.72
2023-01-11T08:16:54.659Z,94438.94
2023-01-11T08:18:56.112Z,94437.19
2023-01-11T08:20:57.578Z,94435.22
2023-01-11T08:23:02.224Z,94444.72
2023-01-11T08:25:03.800Z,94445.28
2023-01-11T08:27:05.302Z,94449.00
2023-01-11T08:29:06.917Z,94456.78
2023-01-11T08:31:08.979Z,94466.47
2023-01-11T08:33:10.470Z,94475.28
2023-01-11T08:35:12.342Z,94477.56
2023-01-11T08:37:14.603Z,94469.38
2023-01-11T08:39:16.166Z,94467.66
2023-01-11T08:41:17.649Z,94471.63
2023-01-11T08:43:19.305Z,94475.66
2023-01-11T08:45:20.795Z,94477.56
2023-01-11T08:47:23.179Z,94474.16
2023-01-11T08:49:25.052Z,94482.31
2023-01-11T08:51:26.586Z,94486.22
2023-01-11T08:53:28.299Z,94479.50
2023-01-11T08:55:30.968Z,94485.94
2023-01-11T08:57:32.489Z,94481.03
2023-01-11T08:59:34.017Z,94487.47
2023-01-11T09:01:35.586Z,94502.50
2023-01-11T09:03:37.229Z,94496.50
2023-01-11T09:05:39.474Z,94497.88
2023-01-11T09:07:41.151Z,94492.06
2023-01-11T09:09:42.646Z,94495.59
2023-01-11T09:12:00.955Z,94492.06
2023-01-11T09:14:02.469Z,94495.88
2023-01-11T09:16:04.049Z,94503.66
2023-01-11T09:18:05.714Z,94500.13
2023-01-11T09:20:07.556Z,94505.63
2023-01-11T09:22:09.071Z,94491.03
2023-01-11T09:24:10.614Z,94488.84
2023-01-11T09:26:12.633Z,94492.00
2023-01-11T09:28:14.179Z,94492.84
2023-01-11T09:30:18.831Z,94492.03
2023-01-11T09:32:20.384Z,94496.69
2023-01-11T09:34:21.973Z,94502.47
2023-01-11T09:36:26.630Z,94502.03
2023-01-11T09:38:30.823Z,94495.72
2023-01-11T09:40:35.410Z,94497.34
2023-01-11T09:42:39.759Z,94501.47
2023-01-11T09:45:02.766Z,94494.22
2023-01-11T09:47:25.550Z,94501.75
2023-01-11T09:49:28.441Z,94501.78
2023-01-11T09:51:33.565Z,94503.72
2023-01-11T09:53:37.220Z,94504.06
2023-01-11T09:55:46.981Z,94499.88
2023-01-11T09:57:52.107Z,94498.28
2023-01-11T10:00:12.256Z,94502.88
2023-01-11T10:05:10.975Z,94503.91
2023-01-11T10:07:23.214Z,94501.78
2023-01-11T10:18:28.387Z,94506.34
2023-01-11T10:18:33.481Z,94510.06
2023-01-11T10:19:39.494Z,94511.13
2023-01-11T10:21:46.704Z,94503.91
2023-01-11T10:24:14.858Z,94503.72
2023-01-11T10:26:24.313Z,94503.84
2023-01-11T10:28:36.271Z,94509.13
2023-01-11T10:30:51.561Z,94511.81
2023-01-11T10:33:14.887Z,94498.53
2023-01-11T10:35:37.922Z,94499.28
2023-01-11T10:38:11.431Z,94500.03
2023-01-11T10:40:31.344Z,94501.13
2023-01-11T10:42:34.029Z,94498.63
2023-01-11T10:44:48.878Z,94495.31
2023-01-11T10:46:51.293Z,94491.69
2023-01-11T10:49:28.683Z,94495.13
2023-01-11T10:51:31.799Z,94494.13
2023-01-11T10:53:39.131Z,94490.78
2023-01-11T10:55:49.382Z,94493.44
2023-01-11T10:58:03.392Z,94497.91
2023-01-11T11:00:14.364Z,94486.69
2023-01-11T11:02:21.155Z,94493.28
2023-01-11T11:04:38.640Z,94491.38
2023-01-11T11:06:40.129Z,94489.38
2023-01-11T11:08:59.682Z,94492.50
2023-01-11T11:11:14.115Z,94488.28
2023-01-11T11:13:18.795Z,94485.25
2023-01-11T11:15:21.825Z,94489.63
2023-01-11T11:17:28.241Z,94487.59
2023-01-11T11:19:32.471Z,94485.50
2023-01-11T11:21:34.806Z,94485.31
2023-01-11T11:23:36.585Z,94480.88
2023-01-11T11:25:38.716Z,94487.53
2023-01-11T11:27:41.372Z,94485.06
2023-01-11T11:29:43.958Z,94477.19
2023-01-11T11:31:47.167Z,94487.63
2023-01-11T11:33:48.779Z,94484.91
2023-01-11T11:36:01.359Z,94487.41
2023-01-11T11:38:02.955Z,94479.72
2023-01-11T11:40:04.729Z,94485.22
2023-01-11T11:42:07.390Z,94499.16
2023-01-11T11:44:14.377Z,94496.75
2023-01-11T11:46:19.391Z,94496.81
2023-01-11T11:48:21.814Z,94504.16
2023-01-11T11:50:43.261Z,94497.31
2023-01-11T11:52:47.820Z,94509.63
2023-01-11T11:54:50.214Z,94508.69
2023-01-11T11:56:51.804Z,94506.13
2023-01-11T11:58:53.409Z,94505.44
2023-01-11T12:00:55.148Z,94512.44
2023-01-11T12:02:58.044Z,94511.91
2023-01-11T12:05:00.197Z,94511.84
2023-01-11T12:07:09.260Z,94505.03
2023-01-11T12:09:25.221Z,94507.41
2023-01-11T12:11:30.165Z,94505.38
2023-01-11T12:13:32.988Z,94510.31
2023-01-11T12:15:34.702Z,94503.78
2023-01-11T12:17:36.429Z,94514.72
2023-01-11T12:19:41.765Z,94515.84
2023-01-11T12:21:43.259Z,94521.91
2023-01-11T12:23:44.946Z,94519.53
2023-01-11T12:25:46.423Z,94528.28
2023-01-11T12:27:55.332Z,94516.94
2023-01-11T12:29:59.859Z,94524.84
2023-01-11T12:32:06.265Z,94526.69
2023-01-11T12:34:16.973Z,94523.00
2023-01-11T12:36:21.577Z,94537.19
2023-01-11T12:38:25.820Z,94529.03
2023-01-11T12:40:37.853Z,94537.31
2023-01-11T12:42:45.606Z,94526.44
2023-01-11T12:45:02.089Z,94521.75
2023-01-11T12:47:06.812Z,94526.94
2023-01-11T12:49:19.386Z,94526.25
2023-01-11T12:51:27.744Z,94531.91
2023-01-11T12:53:38.656Z,94532.66
2023-01-11T12:55:58.337Z,94540.13
2023-01-11T12:58:32.197Z,94541.94
2023-01-11T13:00:52.226Z,94535.00
2023-01-11T13:03:02.933Z,94543.66
2023-01-11T13:05:25.068Z,94544.13
2023-01-11T13:07:35.181Z,94543.53
2023-01-11T13:09:39.577Z,94556.19
2023-01-11T13:12:00.234Z,94545.28
2023-01-11T13:14:07.884Z,94549.97
2023-01-11T13:16:14.393Z,94554.63
2023-01-11T13:18:19.187Z,94556.69
2023-01-11T13:20:25.920Z,94558.91
2023-01-11T13:22:32.382Z,94557.56
2023-01-11T13:24:33.937Z,94564.25
2023-01-11T13:26:36.310Z,94558.38
2023-01-11T13:28:38.883Z,94556.38
2023-01-11T13:30:40.747Z,94560.13
2023-01-11T13:32:44.332Z,94564.75
2023-01-11T13:34:48.325Z,94566.84
2023-01-11T13:36:54.685Z,94563.44
2023-01-11T13:39:05.036Z,94574.38
2023-01-11T13:41:12.159Z,94567.47
2023-01-11T13:43:16.412Z,94566.06
2023-01-11T13:45:19.147Z,94568.19
2023-01-11T13:47:21.416Z,94572.50
2023-01-11T13:49:38.627Z,94564.31
2023-01-11T13:51:46.876Z,94562.47
2023-01-11T13:53:51.460Z,94565.91
2023-01-11T13:56:06.511Z,94567.47
2023-01-11T13:58:23.597Z,94569.09
2023-01-11T14:00:27.447Z,94568.63
2023-01-11T14:02:37.974Z,94570.31
2023-01-11T14:05:18.389Z,94576.38
2023-01-11T14:07:26.139Z,94575.47
2023-01-11T14:09:30.298Z,94570.34
2023-01-11T14:11:31.910Z,94580.72
2023-01-11T14:14:17.545Z,94577.16
2023-01-11T14:16:41.155Z,94575.94
2023-01-11T14:19:15.560Z,94571.69
2023-01-11T14:21:35.779Z,94574.16
2023-01-11T14:23:47.984Z,94574.56
2023-01-11T14:25:59.059Z,94571.72
2023-01-11T14:28:07.126Z,94578.03
2023-01-11T14:30:17.540Z,94581.63
2023-01-11T14:32:19.031Z,94583.81
2023-01-11T14:34:26.387Z,94591.06
2023-01-11T14:36:27.869Z,94591.03
2023-01-11T14:38:29.614Z,94598.00
2023-01-11T14:40:42.948Z,94598.25
2023-01-11T14:42:50.335Z,94599.00
2023-01-11T14:45:13.513Z,94606.22
2023-01-11T14:47:33.887Z,94609.19
2023-01-11T14:49:49.267Z,94613.19
2023-01-11T14:51:58.884Z,94616.72
2023-01-11T14:54:11.191Z,94614.94
2023-01-11T14:56:32.530Z,94614.78
2023-01-11T14:58:34.049Z,94618.00
2023-01-11T15:00:35.566Z,94623.41
2023-01-11T15:02:37.242Z,94619.69
2023-01-11T15:04:56.904Z,94625.63
2023-01-11T15:06:58.461Z,94623.34
2023-01-11T15:09:00.517Z,94625.94
2023-01-11T15:11:24.844Z,94623.78
2023-01-11T15:13:26.638Z,94624.50
2023-01-11T15:15:48.401Z,94627.53
2023-01-11T15:18:14.732Z,94635.84
2023-01-11T15:20:19.964Z,94639.56
2023-01-11T15:22:31.209Z,94645.25
2023-01-11T15:24:37.338Z,94643.50
2023-01-11T15:26:48.692Z,94649.75
2023-01-11T15:28:57.240Z,94649.13
2023-01-11T15:30:58.885Z,94642.41
2023-01-11T15:33:18.891Z,94653.47
2023-01-11T15:35:23.895Z,94649.22
2023-01-11T15:37:28.751Z,94638.50
2023-01-11T15:39:46.453Z,94644.53
2023-01-11T15:42:06.922Z,94653.16
2023-01-11T15:44:22.719Z,94650.31
2023-01-11T15:46:54.790Z,94650.31
2023-01-11T15:49:07.656Z,94654.09
2023-01-11T15:51:27.852Z,94653.97
2023-01-11T15:53:38.429Z,94653.53
2023-01-11T15:55:39.919Z,94656.00
2023-01-11T15:58:00.026Z,94655.75
2023-01-11T16:00:20.158Z,94665.06
2023-01-11T16:02:36.823Z,94666.59
2023-01-11T16:04:54.166Z,94669.41
2023-01-11T16:06:59.402Z,94674.59
2023-01-11T16:09:12.786Z,94672.22
2023-01-11T16:11:38.537Z,94678.81
2023-01-11T16:13:57.844Z,94673.63
2023-01-11T16:16:06.955Z,94674.59
2023-01-11T16:18:20.923Z,94679.19
2023-01-11T16:20:23.841Z,94683.44
2023-01-11T16:22:26.568Z,94678.19
2023-01-11T16:24:29.764Z,94687.13
2023-01-11T16:26:31.440Z,94684.75
2023-01-11T16:28:33.026Z,94679.91
2023-01-11T16:30:34.538Z,94683.41
2023-01-11T16:32:37.676Z,94685.53
2023-01-11T16:34:43.298Z,94689.09
2023-01-11T16:36:49.059Z,94695.19
2023-01-11T16:38:50.599Z,94692.38
2023-01-11T16:40:54.334Z,94701.25
2023-01-11T16:43:01.617Z,94701.69
2023-01-11T16:45:04.267Z,94705.31
2023-01-11T16:47:15.841Z,94706.00
2023-01-11T16:49:17.946Z,94709.78
2023-01-11T16:51:19.530Z,94716.53
2023-01-11T16:53:21.022Z,94716.28
2023-01-11T16:55:25.701Z,94714.19
2023-01-11T16:57:31.424Z,94719.00
2023-01-11T16:59:34.859Z,94717.22
2023-01-11T17:01:51.877Z,94714.84
2023-01-11T17:03:54.592Z,94727.13
2023-01-11T17:05:57.494Z,94722.19
2023-01-11T17:07:58.926Z,94722.41
2023-01-11T17:10:35.889Z,94724.53
2023-01-11T17:12:37.410Z,94722.41
2023-01-11T17:14:38.891Z,94726.38
2023-01-11T17:16:41.262Z,94728.16
2023-01-11T17:18:43.320Z,94734.97
2023-01-11T17:20:44.775Z,94732.38
2023-01-11T17:22:46.489Z,94731.22
2023-01-11T17:24:49.761Z,94732.50
2023-01-11T17:26:54.380Z,94732.97
2023-01-11T17:28:57.600Z,94743.00
2023-01-11T17:31:00.294Z,94747.63
2023-01-11T17:33:01.868Z,94746.94
2023-01-11T17:35:16.951Z,94750.34
2023-01-11T17:37:18.442Z,94747.88
2023-01-11T17:39:29.204Z,94747.16
2023-01-11T17:41:49.664Z,94748.66
2023-01-11T17:44:09.946Z,94752.56
2023-01-11T17:46:16.911Z,94752.81
2023-01-11T17:48:20.496Z,94751.66
2023-01-11T17:50:27.220Z,94754.72
2023-01-11T17:52:29.441Z,94758.91
2023-01-11T17:54:31.030Z,94751.63
2023-01-11T17:56:32.742Z,94752.00
2023-01-11T17:58:34.925Z,94753.88
2023-01-11T18:00:36.491Z,94760.13
2023-01-11T18:02:41.356Z,94754.72
2023-01-11T18:04:42.916Z,94755.28
2023-01-11T18:06:45.223Z,94755.16
2023-01-11T18:08:47.663Z,94757.03
2023-01-11T18:10:53.189Z,94753.72
2023-01-11T18:12:57.969Z,94756.28
2023-01-11T18:15:00.382Z,94756.41
2023-01-11T18:17:03.042Z,94758.13
2023-01-11T18:19:21.938Z,94760.63
2023-01-11T18:21:26.801Z,94754.63
2023-01-11T18:23:28.320Z,94754.50
2023-01-11T18:25:30.778Z,94757.22
2023-01-11T18:27:33.198Z,94763.34
2023-01-11T18:29:37.711Z,94765.00
2023-01-11T18:31:39.233Z,94753.91
2023-01-11T18:33:41.800Z,94756.25
2023-01-11T18:35:46.719Z,94761.00
2023-01-11T18:37:48.602Z,94759.47
2023-01-11T18:39:50.784Z,94763.97
2023-01-11T18:42:08.515Z,94763.84
2023-01-11T18:44:10.734Z,94761.81
2023-01-11T18:46:12.277Z,94771.63
2023-01-11T18:48:14.351Z,94769.16
2023-01-11T18:50:18.062Z,94770.22
2023-01-11T18:52:40.332Z,94766.44
2023-01-11T18:54:42.040Z,94762.66
2023-01-11T18:56:43.697Z,94767.34
2023-01-11T18:59:03.840Z,94769.22
2023-01-11T19:01:07.026Z,94771.59
2023-01-11T19:03:09.586Z,94769.59
2023-01-11T19:05:14.049Z,94772.75
2023-01-11T19:07:15.774Z,94778.41
2023-01-11T19:09:17.255Z,94781.72
2023-01-11T19:11:18.959Z,94777.34
2023-01-11T19:13:21.146Z,94781.00
2023-01-11T19:15:22.704Z,94779.94
2023-01-11T19:17:24.340Z,94775.56
2023-01-11T19:19:26.023Z,94775.13
2023-01-11T19:21:27.518Z,94783.84
2023-01-11T19:23:29.203Z,94785.84
2023-01-11T19:25:30.977Z,94786.91
2023-01-11T19:27:33.458Z,94796.09
2023-01-11T19:29:34.949Z,94811.94
2023-01-11T19:31:36.634Z,94807.69
2023-01-11T19:33:40.216Z,94807.19
2023-01-11T19:35:47.655Z,94812.78
2023-01-11T19:37:49.667Z,94818.72
2023-01-11T19:39:51.150Z,94816.22
2023-01-11T19:41:57.997Z,94816.47
2023-01-11T19:43:59.593Z,94823.63
2023-01-11T19:46:02.330Z,94818.59
2023-01-11T19:48:04.626Z,94822.81
2023-01-11T19:50:07.366Z,94820.69
2023-01-11T19:52:14.026Z,94830.09
2023-01-11T19:54:16.241Z,94834.84
2023-01-11T19:56:17.734Z,94826.72
2023-01-11T19:58:19.194Z,94830.81
2023-01-11T20:00:20.744Z,94827.97
2023-01-11T20:02:22.698Z,94828.84
2023-01-11T20:04:25.866Z,94827.88
2023-01-11T20:06:27.462Z,94818.81
2023-01-11T20:08:29.096Z,94822.22
2023-01-11T20:10:30.539Z,94828.59
2023-01-11T20:12:32.040Z,94820.91
2023-01-11T20:14:34.272Z,94829.53
2023-01-11T20:16:35.728Z,94824.34
2023-01-11T20:18:37.225Z,94825.06
2023-01-11T20:20:38.744Z,94826.94
2023-01-11T20:22:43.145Z,94820.94
2023-01-11T20:24:44.629Z,94823.19
2023-01-11T20:26:49.133Z,94824.72
2023-01-11T20:28:52.019Z,94828.94
2023-01-11T20:30:53.930Z,94825.16
2023-01-11T20:32:55.450Z,94827.19
2023-01-11T20:34:56.927Z,94824.59
2023-01-11T20:36:58.375Z,94829.53
2023-01-11T20:38:59.926Z,94830.13
2023-01-11T20:41:05.544Z,94821.41
2023-01-11T20:43:07.403Z,94816.69
2023-01-11T20:45:09.322Z,94825.88
2023-01-11T20:47:10.775Z,94822.22
2023-01-11T20:49:12.624Z,94818.47
2023-01-11T20:51:15.525Z,94817.97
2023-01-11T20:53:17.516Z,94811.38
2023-01-11T20:55:19.409Z,94818.69
2023-01-11T20:57:21.433Z,94816.56
2023-01-11T20:59:22.881Z,94814.56
2023-01-11T21:01:27.467Z,94809.63
2023-01-11T21:03:29.004Z,94808.56
2023-01-11T21:05:30.769Z,94816.69
2023-01-11T21:07:32.485Z,94810.44
2023-01-11T21:09:34.010Z,94815.63
2023-01-11T21:11:35.528Z,94815.16
2023-01-11T21:13:37.527Z,94813.38
2023-01-11T21:15:39.109Z,94810.44
2023-01-11T21:17:40.900Z,94809.03
2023-01-11T21:19:43.803Z,94811.75
2023-01-11T21:21:45.338Z,94815.41
2023-01-11T21:23:47.173Z,94812.44
2023-01-11T21:25:48.651Z,94807.50
2023-01-11T21:27:51.129Z,94803.84
2023-01-11T21:29:53.487Z,94811.25
2023-01-11T21:31:55.009Z,94806.31
2023-01-11T21:33:56.548Z,94806.06
2023-01-11T21:36:04.391Z,94801.84
2023-01-11T21:38:05.926Z,94808.66
2023-01-11T21:40:07.792Z,94804.91
2023-01-11T21:42:09.418Z,94807.94
2023-01-11T21:44:11.560Z,94807.25
2023-01-11T21:46:13.283Z,94810.91
2023-01-11T21:48:14.888Z,94807.25
2023-01-11T21:50:16.666Z,94810.34
2023-01-11T21:52:18.170Z,94810.56
2023-01-11T21:54:19.796Z,94805.38
2023-01-11T21:56:21.452Z,94804.19
2023-01-11T21:58:23.981Z,94808.66
2023-01-11T22:00:25.996Z,94808.56
2023-01-11T22:02:28.390Z,94814.81
2023-01-11T22:04:29.936Z,94811.28
2023-01-11T22:06:31.449Z,94813.84
2023-01-11T22:08:34.226Z,94819.38
2023-01-11T22:10:35.797Z,94813.03
2023-01-11T22:12:37.630Z,94808.81
2023-01-11T22:14:39.153Z,94807.63
2023-01-11T22:16:40.928Z,94815.88
2023-01-11T22:18:42.949Z,94811.63
2023-01-11T22:20:44.443Z,94798.78
2023-01-11T22:22:46.042Z,94809.84
2023-01-11T22:24:47.713Z,94807.38
2023-01-11T22:26:49.353Z,94795.94
2023-01-11T22:29:12.893Z,94798.19
2023-01-11T22:31:15.803Z,94796.53
2023-01-11T22:33:17.389Z,94788.66
2023-01-11T22:35:18.879Z,94795.72
2023-01-11T22:37:20.505Z,94794.31
2023-01-11T22:39:22.117Z,94794.66
2023-01-11T22:41:24.532Z,94792.19
2023-01-11T22:43:26.160Z,94799.50
2023-01-11T22:45:27.718Z,94787.09
2023-01-11T22:47:29.303Z,94785.94
2023-01-11T22:49:31.165Z,94788.16
2023-01-11T22:51:32.638Z,94793.25
2023-01-11T22:53:37.513Z,94793.72
2023-01-11T22:55:39.073Z,94786.66
2023-01-11T22:57:40.636Z,94781.91
2023-01-11T22:59:42.152Z,94780.59
2023-01-11T23:01:43.685Z,94790.16
2023-01-11T23:03:45.447Z,94795.34
2023-01-11T23:05:47.113Z,94801.09
2023-01-11T23:07:49.988Z,94795.41
2023-01-11T23:09:51.551Z,94803.13
2023-01-11T23:12:11.399Z,94799.53
2023-01-11T23:14:15.151Z,94793.94
2023-01-11T23:16:16.695Z,94795.75
2023-01-11T23:18:18.207Z,94800.22
2023-01-11T23:20:19.774Z,94798.88
2023-01-11T23:22:21.352Z,94799.66
2023-01-11T23:24:22.921Z,94795.47
2023-01-11T23:26:24.632Z,94792.09
2023-01-11T23:28:26.126Z,94789.06
2023-01-11T23:30:27.683Z,94788.84
2023-01-11T23:32:29.209Z,94795.34
2023-01-11T23:34:30.740Z,94789.81
2023-01-11T23:36:34.633Z,94788.31
2023-01-11T23:38:36.186Z,94785.50
2023-01-11T23:40:56.209Z,94791.16
2023-01-11T23:42:59.402Z,94790.81
2023-01-11T23:45:00.920Z,94791.63
2023-01-11T23:47:21.040Z,94791.63
2023-01-11T23:49:22.882Z,94787.03
2023-01-11T23:51:25.739Z,94794.69
2023-01-11T23:53:27.291Z,94794.47
2023-01-11T23:55:28.974Z,94799.75
2023-01-11T23:57:30.568Z,94797.50
2023-01-11T23:59:32.188Z,94791.63
